Garden City, New York
Current Conditions -  °F | °C
As of 4:51 PM on Thursday 27 Nov 2014 (Local Time) from KJFK Reporting Station
Overcast Overcast  
Wind Chill: 31°   Ceiling: 2100
Heat Index: 38°   Visibility: 10mi
Dew Point: 30°   Wind: 10mph
Humidity: 73%   Direction: 300°WNW
Pressure: 30.02"   Gusts: NA
Location:  40.73°N, 73.64°W
Report Text: KJFK 272151Z 30009KT 10SM OVC021 03/M01 A3002 RMK AO2 SLP164 T00331011 $
Loading
Personal Weather Stations






























Interactive Weather Map New forecast layout! Learn more

10-Day Weather Forecast

Advertisements
Track Severe Weather on mobile